createdAt,value
2023-01-08T00:00:03.762Z,18.10
2023-01-08T00:02:41.041Z,18.70
2023-01-08T00:05:11.605Z,18.40
2023-01-08T00:07:40.349Z,18.90
2023-01-08T00:10:09.241Z,18.57
2023-01-08T00:12:39.998Z,18.80
2023-01-08T00:15:09.303Z,20.30
2023-01-08T00:17:38.600Z,20.10
2023-01-08T00:20:08.573Z,19.00
2023-01-08T00:22:38.692Z,19.37
2023-01-08T00:25:08.922Z,20.00
2023-01-08T00:27:37.525Z,19.60
2023-01-08T00:30:08.553Z,19.53
2023-01-08T00:32:38.358Z,20.60
2023-01-08T00:35:07.737Z,20.53
2023-01-08T00:37:36.324Z,20.00
2023-01-08T00:40:05.363Z,20.27
2023-01-08T00:42:33.733Z,19.43
2023-01-08T00:45:05.551Z,19.80
2023-01-08T00:47:35.711Z,12.70
2023-01-08T00:50:05.384Z,11.70
2023-01-08T00:52:33.876Z,12.00
2023-01-08T00:55:02.223Z,13.30
2023-01-08T00:57:34.930Z,11.53
2023-01-08T01:00:03.751Z,11.70
2023-01-08T01:02:32.221Z,12.07
2023-01-08T01:05:02.207Z,12.87
2023-01-08T01:07:30.613Z,12.33
2023-01-08T01:09:59.214Z,18.03
2023-01-08T01:12:29.595Z,19.17
2023-01-08T01:14:58.183Z,20.90
2023-01-08T01:17:26.941Z,20.23
2023-01-08T01:19:55.377Z,18.90
2023-01-08T01:22:25.089Z,20.00
2023-01-08T01:24:55.438Z,19.10
2023-01-08T01:27:23.662Z,19.23
2023-01-08T01:29:52.133Z,19.27
2023-01-08T01:32:20.835Z,17.60
2023-01-08T01:34:49.716Z,19.50
2023-01-08T01:37:20.248Z,18.13
2023-01-08T01:39:52.461Z,18.47
2023-01-08T01:42:35.704Z,18.80
2023-01-08T01:45:05.745Z,18.13
2023-01-08T01:47:37.717Z,20.03
2023-01-08T01:50:10.127Z,20.10
2023-01-08T01:52:42.262Z,18.53
2023-01-08T01:55:17.211Z,20.27
2023-01-08T01:58:01.057Z,19.43
2023-01-08T02:00:34.225Z,20.40
2023-01-08T02:03:03.540Z,19.33
2023-01-08T02:05:46.984Z,20.10
2023-01-08T02:08:23.351Z,19.50
2023-01-08T02:10:59.271Z,20.33
2023-01-08T02:13:31.110Z,19.40
2023-01-08T02:16:07.291Z,18.07
2023-01-08T02:18:44.923Z,20.17
2023-01-08T02:21:19.932Z,18.83
2023-01-08T02:23:54.562Z,19.23
2023-01-08T02:26:29.583Z,19.97
2023-01-08T02:29:02.274Z,19.37
2023-01-08T02:31:32.543Z,19.80
2023-01-08T02:34:01.436Z,18.80
2023-01-08T02:36:39.544Z,20.07
2023-01-08T02:39:18.076Z,19.10
2023-01-08T02:42:09.705Z,19.40
2023-01-08T02:44:50.327Z,19.00
2023-01-08T02:47:28.109Z,20.17
2023-01-08T02:50:04.573Z,19.60
2023-01-08T02:52:35.984Z,20.27
2023-01-08T02:55:07.573Z,19.63
2023-01-08T02:57:37.781Z,19.93
2023-01-08T03:00:08.041Z,20.27
2023-01-08T03:02:39.886Z,20.27
2023-01-08T03:05:15.622Z,19.70
2023-01-08T03:07:44.771Z,19.77
2023-01-08T03:10:14.007Z,18.53
2023-01-08T03:12:54.980Z,19.50
2023-01-08T03:15:29.094Z,21.37
2023-01-08T03:18:00.335Z,13.70
2023-01-08T03:20:28.869Z,20.97
2023-01-08T03:23:00.673Z,20.27
2023-01-08T03:25:31.320Z,20.33
2023-01-08T03:28:05.141Z,21.23
2023-01-08T03:30:34.786Z,20.20
2023-01-08T03:33:06.680Z,19.93
2023-01-08T03:35:37.185Z,20.83
2023-01-08T03:38:09.945Z,21.77
2023-01-08T03:40:46.669Z,20.20
2023-01-08T03:43:16.628Z,21.00
2023-01-08T03:45:51.460Z,20.30
2023-01-08T03:48:24.535Z,21.57
2023-01-08T03:50:53.074Z,21.37
2023-01-08T03:53:21.434Z,21.47
2023-01-08T03:55:51.695Z,22.37
2023-01-08T03:58:21.324Z,21.17
2023-01-08T04:00:49.828Z,22.00
2023-01-08T04:03:18.280Z,22.37
2023-01-08T04:05:46.921Z,21.43
2023-01-08T04:08:15.428Z,21.80
2023-01-08T04:10:44.274Z,22.40
2023-01-08T04:13:12.915Z,21.90
2023-01-08T04:15:42.933Z,21.20
2023-01-08T04:18:11.752Z,21.90
2023-01-08T04:20:40.428Z,21.70
2023-01-08T04:23:08.744Z,21.00
2023-01-08T04:25:39.700Z,21.47
2023-01-08T04:28:11.611Z,21.90
2023-01-08T04:30:40.245Z,22.07
2023-01-08T04:33:12.831Z,20.67
2023-01-08T04:35:44.771Z,20.40
2023-01-08T04:38:13.270Z,20.97
2023-01-08T04:40:42.650Z,19.90
2023-01-08T04:43:11.738Z,20.80
2023-01-08T04:45:40.156Z,21.93
2023-01-08T04:48:10.286Z,21.70
2023-01-08T04:50:38.865Z,21.20
2023-01-08T04:53:07.093Z,21.10
2023-01-08T04:55:36.705Z,20.87
2023-01-08T04:58:05.512Z,21.10
2023-01-08T05:00:35.343Z,21.00
2023-01-08T05:03:03.732Z,21.40
2023-01-08T05:05:34.885Z,20.67
2023-01-08T05:08:06.720Z,22.13
2023-01-08T05:10:35.194Z,22.07
2023-01-08T05:13:04.083Z,22.70
2023-01-08T05:15:33.408Z,21.70
2023-01-08T05:18:02.768Z,19.80
2023-01-08T05:20:31.627Z,22.73
2023-01-08T05:23:01.389Z,21.00
2023-01-08T05:25:29.889Z,22.73
2023-01-08T05:28:00.990Z,21.93
2023-01-08T05:30:29.435Z,21.80
2023-01-08T05:32:57.872Z,23.37
2023-01-08T05:35:26.538Z,21.73
2023-01-08T05:37:54.821Z,21.73
2023-01-08T05:40:24.877Z,21.70
2023-01-08T05:42:53.864Z,21.50
2023-01-08T05:45:22.498Z,21.13
2023-01-08T05:47:52.937Z,21.27
2023-01-08T05:50:21.591Z,22.87
2023-01-08T05:52:51.833Z,20.63
2023-01-08T05:55:20.485Z,23.00
2023-01-08T05:57:50.606Z,22.97
2023-01-08T06:00:19.606Z,23.53
2023-01-08T06:02:48.625Z,23.70
2023-01-08T06:05:18.359Z,21.43
2023-01-08T06:07:47.107Z,23.00
2023-01-08T06:10:17.893Z,22.30
2023-01-08T06:12:46.323Z,22.50
2023-01-08T06:15:16.512Z,24.57
2023-01-08T06:17:45.023Z,23.30
2023-01-08T06:20:13.875Z,21.83
2023-01-08T06:22:42.964Z,22.53
2023-01-08T06:25:12.213Z,22.77
2023-01-08T06:27:40.805Z,21.50
2023-01-08T06:30:12.194Z,21.97
2023-01-08T06:32:42.666Z,22.53
2023-01-08T06:35:13.715Z,22.60
2023-01-08T06:37:42.099Z,21.97
2023-01-08T06:40:11.553Z,22.90
2023-01-08T06:42:39.747Z,22.83
2023-01-08T06:45:09.378Z,23.40
2023-01-08T06:47:37.822Z,22.40
2023-01-08T06:50:08.473Z,22.63
2023-01-08T06:52:37.074Z,22.43
2023-01-08T06:55:06.292Z,23.90
2023-01-08T06:57:34.705Z,23.57
2023-01-08T07:00:03.143Z,21.53
2023-01-08T07:02:31.824Z,20.17
2023-01-08T07:05:00.253Z,21.60
2023-01-08T07:07:30.003Z,22.10
2023-01-08T07:09:58.253Z,21.37
2023-01-08T07:12:26.877Z,22.07
2023-01-08T07:14:55.203Z,22.10
2023-01-08T07:17:27.004Z,22.30
2023-01-08T07:19:55.489Z,22.40
2023-01-08T07:22:24.247Z,22.17
2023-01-08T07:24:54.381Z,22.80
2023-01-08T07:27:22.902Z,20.20
2023-01-08T07:29:51.128Z,22.17
2023-01-08T07:32:19.534Z,21.10
2023-01-08T07:34:47.725Z,23.30
2023-01-08T07:37:16.368Z,21.53
2023-01-08T07:39:44.778Z,20.73
2023-01-08T07:42:14.829Z,22.33
2023-01-08T07:44:43.171Z,20.93
2023-01-08T07:47:11.759Z,23.13
2023-01-08T07:49:40.324Z,23.30
2023-01-08T07:52:08.891Z,20.77
2023-01-08T07:54:37.136Z,22.10
2023-01-08T07:57:05.683Z,22.73
2023-01-08T07:59:35.418Z,23.20
2023-01-08T08:02:03.988Z,21.37
2023-01-08T08:04:32.443Z,22.53
2023-01-08T08:07:00.943Z,21.07
2023-01-08T08:09:29.332Z,20.63
2023-01-08T08:11:57.819Z,20.27
2023-01-08T08:14:26.310Z,21.80
2023-01-08T08:16:56.187Z,21.40
2023-01-08T08:19:25.053Z,20.33
2023-01-08T08:21:53.801Z,21.33
2023-01-08T08:24:22.101Z,20.77
2023-01-08T08:26:51.051Z,21.50
2023-01-08T08:29:19.306Z,21.40
2023-01-08T08:31:48.167Z,20.00
2023-01-08T08:34:18.036Z,21.30
2023-01-08T08:36:46.414Z,21.77
2023-01-08T08:39:15.064Z,21.87
2023-01-08T08:41:43.627Z,20.10
2023-01-08T08:44:12.087Z,20.83
2023-01-08T08:46:40.869Z,15.53
2023-01-08T08:49:09.331Z,20.37
2023-01-08T08:51:39.228Z,21.33
2023-01-08T08:54:07.644Z,20.03
2023-01-08T08:56:35.980Z,20.43
2023-01-08T08:59:04.292Z,20.47
2023-01-08T09:01:32.901Z,20.67
2023-01-08T09:04:04.489Z,19.53
2023-01-08T09:06:32.935Z,20.83
2023-01-08T09:09:02.917Z,20.57
2023-01-08T09:11:34.448Z,19.70
2023-01-08T09:14:02.929Z,20.10
2023-01-08T09:16:33.243Z,20.23
2023-01-08T09:19:01.653Z,20.30
2023-01-08T09:21:30.138Z,20.30
2023-01-08T09:24:05.317Z,20.23
2023-01-08T09:26:39.741Z,19.97
2023-01-08T09:29:24.180Z,19.87
2023-01-08T09:31:52.717Z,20.63
2023-01-08T09:34:21.351Z,20.57
2023-01-08T09:41:06.977Z,18.40
2023-01-08T09:43:46.575Z,18.53
2023-01-08T09:46:20.114Z,19.90
2023-01-08T09:48:49.414Z,19.50
2023-01-08T09:51:20.277Z,19.53
2023-01-08T09:54:02.282Z,18.33
2023-01-08T09:56:35.574Z,19.53
2023-01-08T09:59:07.259Z,18.97
2023-01-08T10:01:51.042Z,20.30
2023-01-08T10:07:22.171Z,19.90
2023-01-08T10:09:51.614Z,21.00
2023-01-08T10:12:41.985Z,21.20
2023-01-08T10:15:22.471Z,20.30
2023-01-08T10:18:03.527Z,20.50
2023-01-08T10:20:32.959Z,18.47
2023-01-08T10:23:23.229Z,18.77
2023-01-08T10:29:21.743Z,21.77
2023-01-08T10:31:54.788Z,21.20
2023-01-08T10:34:48.773Z,20.97
2023-01-08T10:37:26.798Z,22.57
2023-01-08T10:39:59.821Z,21.00
2023-01-08T10:42:40.908Z,20.30
2023-01-08T10:45:24.384Z,20.63
2023-01-08T10:47:59.548Z,20.00
2023-01-08T10:50:53.217Z,19.40
2023-01-08T11:00:31.991Z,18.40
2023-01-08T11:03:05.721Z,19.83
2023-01-08T11:05:35.651Z,20.60
2023-01-08T11:08:07.454Z,19.23
2023-01-08T11:10:37.840Z,20.73
2023-01-08T11:13:09.281Z,20.17
2023-01-08T11:15:39.942Z,19.17
2023-01-08T11:18:18.791Z,21.77
2023-01-08T11:20:48.038Z,20.80
2023-01-08T11:23:26.911Z,20.70
2023-01-08T11:26:08.486Z,19.73
2023-01-08T11:28:49.299Z,20.17
2023-01-08T11:31:28.831Z,20.70
2023-01-08T11:34:07.474Z,20.17
2023-01-08T11:36:43.384Z,19.80
2023-01-08T11:39:12.115Z,19.77
2023-01-08T11:42:19.449Z,18.47
2023-01-08T11:45:01.839Z,19.07
2023-01-08T11:47:54.076Z,19.53
2023-01-08T11:50:34.832Z,20.53
2023-01-08T11:53:19.288Z,19.30
2023-01-08T11:55:56.532Z,19.60
2023-01-08T11:58:33.468Z,19.43
2023-01-08T12:01:18.112Z,19.60
2023-01-08T12:06:48.094Z,19.40
2023-01-08T12:09:32.835Z,20.40
2023-01-08T12:12:08.834Z,20.67
2023-01-08T12:14:50.170Z,19.77
2023-01-08T12:17:54.662Z,21.23
2023-01-08T12:20:33.834Z,19.60
2023-01-08T12:26:21.258Z,19.53
2023-01-08T12:29:28.276Z,20.23
2023-01-08T12:36:19.643Z,20.67
2023-01-08T12:38:57.172Z,20.00
2023-01-08T12:41:27.236Z,20.57
2023-01-08T12:44:15.317Z,20.13
2023-01-08T12:46:47.363Z,20.83
2023-01-08T12:49:21.463Z,19.90
2023-01-08T12:51:58.772Z,22.70
2023-01-08T12:54:39.079Z,20.77
2023-01-08T12:57:23.159Z,22.00
2023-01-08T13:00:02.088Z,20.23
2023-01-08T13:02:38.751Z,21.90
2023-01-08T13:05:30.253Z,22.90
2023-01-08T13:08:02.699Z,23.60
2023-01-08T13:11:06.570Z,21.50
2023-01-08T13:13:42.345Z,21.70
2023-01-08T13:16:48.795Z,21.80
2023-01-08T13:19:30.540Z,22.80
2023-01-08T13:22:01.068Z,21.70
2023-01-08T13:24:37.739Z,24.00
2023-01-08T13:27:29.709Z,23.30
2023-01-08T13:36:07.968Z,22.33
2023-01-08T13:38:36.573Z,22.83
2023-01-08T13:41:05.153Z,23.90
2023-01-08T13:43:40.050Z,23.90
2023-01-08T13:46:16.245Z,22.70
2023-01-08T13:49:01.342Z,22.93
2023-01-08T13:51:40.452Z,23.07
2023-01-08T13:54:20.024Z,23.97
2023-01-08T13:56:54.144Z,22.03
2023-01-08T13:59:33.322Z,23.87
2023-01-08T14:02:03.687Z,23.90
2023-01-08T14:04:32.585Z,23.63
2023-01-08T14:07:14.420Z,23.43
2023-01-08T14:09:43.736Z,24.30
2023-01-08T14:12:20.485Z,24.20
2023-01-08T14:14:54.016Z,23.50
2023-01-08T14:17:26.887Z,23.47
2023-01-08T14:19:55.310Z,23.93
2023-01-08T14:22:28.812Z,23.57
2023-01-08T14:24:59.554Z,23.47
2023-01-08T14:27:29.630Z,23.10
2023-01-08T14:30:02.184Z,22.97
2023-01-08T14:33:10.790Z,23.07
2023-01-08T14:35:49.918Z,24.10
2023-01-08T14:38:39.812Z,23.80
2023-01-08T14:42:37.775Z,22.07
2023-01-08T14:45:15.412Z,25.07
2023-01-08T14:47:46.597Z,22.40
2023-01-08T14:50:21.778Z,23.13
2023-01-08T14:52:54.188Z,24.63
2023-01-08T14:55:26.182Z,22.70
2023-01-08T14:58:00.067Z,23.10
2023-01-08T15:00:32.598Z,21.70
2023-01-08T15:03:00.965Z,24.10
2023-01-08T15:05:31.527Z,22.70
2023-01-08T15:08:03.346Z,22.80
2023-01-08T15:10:41.135Z,22.40
2023-01-08T15:13:28.882Z,21.73
2023-01-08T15:16:38.164Z,21.40
2023-01-08T15:19:14.942Z,22.70
2023-01-08T15:21:48.580Z,22.50
2023-01-08T15:24:24.475Z,24.57
2023-01-08T15:26:53.440Z,22.50
2023-01-08T15:29:24.943Z,21.60
2023-01-08T15:31:57.345Z,22.23
2023-01-08T15:34:29.796Z,22.50
2023-01-08T15:37:04.283Z,21.23
2023-01-08T15:39:35.196Z,23.23
2023-01-08T15:42:36.904Z,23.50
2023-01-08T17:59:15.082Z,23.80
2023-01-08T18:01:53.470Z,25.83
2023-01-08T18:04:22.391Z,26.03
2023-01-08T18:06:53.306Z,27.90
2023-01-08T18:09:21.789Z,24.73
2023-01-08T18:11:50.374Z,24.50
2023-01-08T18:14:44.299Z,25.40
2023-01-08T18:20:01.277Z,24.20
2023-01-08T18:22:29.659Z,23.57
2023-01-08T18:24:58.082Z,24.10
2023-01-08T18:27:26.448Z,24.23
2023-01-08T18:29:57.426Z,25.10
2023-01-08T18:32:26.062Z,26.30
2023-01-08T18:34:55.411Z,26.23
2023-01-08T18:37:34.256Z,25.50
2023-01-08T18:40:33.501Z,25.23
2023-01-08T18:43:19.195Z,26.00
2023-01-08T19:02:49.077Z,24.67
2023-01-08T19:05:17.854Z,27.20
2023-01-08T19:08:07.912Z,26.50
2023-01-08T19:10:46.875Z,23.90
2023-01-08T19:13:49.458Z,25.63
2023-01-08T19:16:24.611Z,25.63
2023-01-08T19:20:49.918Z,24.77
2023-01-08T19:23:23.729Z,23.37
2023-01-08T19:25:53.292Z,25.37
2023-01-08T19:28:21.912Z,27.17
2023-01-08T19:30:55.717Z,24.77
2023-01-08T19:33:43.572Z,24.90
2023-01-08T19:36:25.297Z,25.20
2023-01-08T19:39:19.008Z,24.53
2023-01-08T19:48:13.385Z,25.40
2023-01-08T19:51:33.007Z,25.73
2023-01-08T19:54:02.676Z,25.10
2023-01-08T19:56:39.278Z,25.80
2023-01-08T19:59:12.872Z,25.27
2023-01-08T20:01:44.426Z,27.07
2023-01-08T20:04:38.477Z,24.20
2023-01-08T20:07:42.913Z,23.90
2023-01-08T20:10:38.070Z,24.23
2023-01-08T20:16:20.227Z,23.13
2023-01-08T20:23:52.572Z,22.87
2023-01-08T20:27:39.881Z,23.37
2023-01-08T20:30:56.936Z,22.00
2023-01-08T20:34:37.499Z,23.13
2023-01-08T20:37:25.035Z,24.33
2023-01-08T20:43:12.954Z,23.93
2023-01-08T20:46:02.742Z,23.90
2023-01-08T20:48:57.076Z,24.57
2023-01-08T20:52:04.080Z,23.67
2023-01-08T20:54:32.417Z,24.17
2023-01-08T20:57:30.311Z,23.87
2023-01-08T21:00:07.055Z,24.10
2023-01-08T21:02:37.207Z,22.43
2023-01-08T21:05:48.931Z,23.60
2023-01-08T21:08:19.883Z,22.63
2023-01-08T21:11:01.039Z,23.70
2023-01-08T21:16:35.359Z,24.50
2023-01-08T21:19:31.117Z,24.60
2023-01-08T21:22:03.690Z,25.07
2023-01-08T21:24:34.795Z,23.50
2023-01-08T21:27:04.557Z,24.90
2023-01-08T21:29:35.686Z,24.60
2023-01-08T21:32:04.389Z,24.00
2023-01-08T21:34:46.425Z,24.87
2023-01-08T21:37:16.495Z,24.40
2023-01-08T21:39:51.492Z,25.60
2023-01-08T21:46:20.705Z,22.30
2023-01-08T21:52:06.966Z,22.67
2023-01-08T21:54:39.343Z,25.50
2023-01-08T21:58:06.959Z,24.20
2023-01-08T22:03:31.608Z,22.43
2023-01-08T22:06:00.656Z,23.07
2023-01-08T22:08:31.351Z,24.50
2023-01-08T22:10:59.971Z,26.07
2023-01-08T22:13:28.746Z,24.40
2023-01-08T22:16:08.441Z,23.17
2023-01-08T22:18:58.032Z,23.87
2023-01-08T22:21:26.592Z,23.50
2023-01-08T22:38:34.166Z,22.67
2023-01-08T22:42:08.765Z,24.43
2023-01-08T22:44:44.867Z,22.20
2023-01-08T22:47:43.028Z,23.43
2023-01-08T22:50:13.818Z,22.23
2023-01-08T22:53:52.912Z,23.20
2023-01-08T22:57:21.301Z,20.87
2023-01-08T23:05:05.556Z,24.17
2023-01-08T23:07:37.825Z,23.20
2023-01-08T23:10:13.357Z,22.10
2023-01-08T23:12:44.641Z,22.90
2023-01-08T23:15:19.660Z,24.33
2023-01-08T23:18:06.887Z,24.70
2023-01-08T23:20:49.324Z,22.63
2023-01-08T23:24:04.786Z,23.73
2023-01-08T23:26:39.365Z,20.17
2023-01-08T23:32:30.329Z,23.03
2023-01-08T23:35:05.455Z,24.73
2023-01-08T23:37:52.210Z,23.47
2023-01-08T23:40:47.710Z,24.87
2023-01-08T23:44:23.863Z,24.00
2023-01-08T23:55:47.153Z,22.97
2023-01-08T23:58:54.172Z,22.53
